^^
Station Historical Data
Daily Summary for February 17, 2018 Units:  Metric    English   Both
« Previous Day
Next Day »
Daily Weekly Monthly Yearly Custom
  High: Low: Average:
Temperature: -17.8 °C 23.1 °C 28.7 °C
Dew Point: -17.8 °C 2.1 °C 6.4 °C
Humidity: Humidity% 11% 24%
Wind Speed: 0km/h 4.7km/h 17.5km/h
Wind Gust: 0km/h - -
Wind- - SW
Pressure: 0 hPa 999.9 hPa -
Precipitation: 0 mm    
Historical Graphs
 
 
Tabular Data for February 17, 2018
Time Temperature Dew Point Pressure Wind Wind Speed Wind Gust Humidity Rainfall Rate (Hourly) solar Conditions
-17.8 °C -17.8 °C 0 hPa Calm     Humidity% 0 mm SolarRadiationWatts/m^2 W/m2 Conditions
14:35 36.9 °C 6 °C 1001.9 hPa NW 9.7 km/h 17.7 km/h 15% 0 mm 881.0 W/m2
15:05 37.3 °C 5.3 °C 1001.9 hPa NW 11.1 km/h 20.9 km/h 14% 0 mm 833.0 W/m2
15:15 37.6 °C 5.6 °C 1001.6 hPa NW 9.7 km/h 17.7 km/h 14% 0 mm 810.0 W/m2
15:25 37.6 °C 2.1 °C 1001.2 hPa WNW 13 km/h 20.9 km/h 11% 0 mm 788.0 W/m2
15:34 38.1 °C 3.7 °C 1001.2 hPa NNW 13 km/h 17.7 km/h 12% 0 mm 759.0 W/m2
17:42 37.8 °C 3.5 °C 999.9 hPa WNW 4.7 km/h 4.8 km/h 12% 0 mm 374.0 W/m2
17:57 37.4 °C 8.2 °C 999.9 hPa SW 19.5 km/h 33.8 km/h 17% 0 mm 339.0 W/m2
18:17 34.6 °C 9.1 °C 1000.2 hPa SW 30.6 km/h 41.8 km/h 21% 0 mm 281.0 W/m2
18:32 33 °C 9.7 °C 1000.2 hPa SSW 28.8 km/h 40.2 km/h 24% 0 mm 193.0 W/m2
18:43 32.6 °C 9.4 °C 1000.6 hPa SSW 30.6 km/h 38.6 km/h 24% 0 mm 130.0 W/m2
18:53 32.1 °C 9.6 °C 1000.9 hPa SSW 22.7 km/h 30.6 km/h 25% 0 mm 65.0 W/m2
19:13 31.4 °C 10.2 °C 1001.2 hPa SSW 28.8 km/h 35.4 km/h 27% 0 mm 25.0 W/m2
19:28 30.7 °C 10.6 °C 1001.2 hPa SSW 22.7 km/h 27.4 km/h 29% 0 mm 11.0 W/m2
19:42 29.7 °C 10.3 °C 1001.6 hPa SSW 27.4 km/h 35.4 km/h 30% 0 mm 0.0 W/m2
19:51 29 °C 10.2 °C 1001.9 hPa SSW 20.9 km/h 30.6 km/h 31% 0 mm 0.0 W/m2
20:01 28.5 °C 9.7 °C 1001.9 hPa SSW 24.1 km/h 32.2 km/h 31% 0 mm 0.0 W/m2
20:09 28 °C 9.8 °C 1002.3 hPa SSW 19.5 km/h 35.4 km/h 32% 0 mm 0.0 W/m2
23:14 23.6 °C 6.8 °C 1005.3 hPa South 20.9 km/h 22.5 km/h 34% 0 mm 0.0 W/m2
23:20 23.5 °C 6.7 °C 1005.3 hPa SSW 16.3 km/h 20.9 km/h 34% 0 mm 0.0 W/m2
23:30 23.4 °C 6.6 °C 1005.3 hPa SSW 6.4 km/h 19.3 km/h 34% 0 mm 0.0 W/m2
23:39 23.3 °C 6.6 °C 1005.3 hPa South 17.7 km/h 22.5 km/h 34% 0 mm 0.0 W/m2
23:45 23.2 °C 6.5 °C 1005.6 hPa SSW 13 km/h 22.5 km/h 34% 0 mm 0.0 W/m2
23:50 23.1 °C 6.4 °C 1005.6 hPa South 16.3 km/h 19.3 km/h 34% 0 mm 0.0 W/m2
23:55 23.1 °C 6.4 °C 1005.6 hPa South 9.7 km/h 20.9 km/h 34% 0 mm 0.0 W/m2
Canyon Roadhouse, Fishriver Canyon, Namibia
Compliments of Weather Underground - 1.75 mb